sensor_id;sensor_type;location;lat;lon;timestamp;P1;P2;P0
45112;PMS5003;30873;53.908;27.576;2023-02-01T00:01:29;5.9;5;3.5
45112;PMS5003;30873;53.908;27.576;2023-02-01T00:06:55;6.8;5.1;3.6
45112;PMS5003;30873;53.908;27.576;2023-02-01T00:11:06;6.5;5.4;3.2
45112;PMS5003;30873;53.908;27.576;2023-02-01T00:16:39;7.3;6.1;3.6
45112;PMS5003;30873;53.908;27.576;2023-02-01T00:21:29;7;5.8;3.8
45112;PMS5003;30873;53.908;27.576;2023-02-01T00:26:39;7.4;6.2;3.5
45112;PMS5003;30873;53.908;27.576;2023-02-01T00:31:29;7.5;6.2;4.1
45112;PMS5003;30873;53.908;27.576;2023-02-01T00:36:53;7.9;6.3;4.1
45112;PMS5003;30873;53.908;27.576;2023-02-01T00:41:41;8.6;6.6;4
45112;PMS5003;30873;53.908;27.576;2023-02-01T00:46:39;8.8;7.5;4.4
45112;PMS5003;30873;53.908;27.576;2023-02-01T00:51:53;9.4;7.4;4.7
45112;PMS5003;30873;53.908;27.576;2023-02-01T00:56:29;9.3;7.1;4.3
45112;PMS5003;30873;53.908;27.576;2023-02-01T01:01:41;9.1;7.7;4.7
45112;PMS5003;30873;53.908;27.576;2023-02-01T01:06:06;9.7;8.3;5
45112;PMS5003;30873;53.908;27.576;2023-02-01T01:11:43;9.6;7.8;4.8
45112;PMS5003;30873;53.908;27.576;2023-02-01T01:16:17;9.5;7.8;5
45112;PMS5003;30873;53.908;27.576;2023-02-01T01:21:39;9.9;8.3;5.2
45112;PMS5003;30873;53.908;27.576;2023-02-01T01:26:05;8.4;7.7;4.7
45112;PMS5003;30873;53.908;27.576;2023-02-01T01:31:43;10.8;8.6;5.4
45112;PMS5003;30873;53.908;27.576;2023-02-01T01:36:43;9.7;8.6;5.4
45112;PMS5003;30873;53.908;27.576;2023-02-01T01:41:53;10.7;9.1;5.6
45112;PMS5003;30873;53.908;27.576;2023-02-01T01:46:55;10.1;8.6;5.4
45112;PMS5003;30873;53.908;27.576;2023-02-01T01:51:05;10.6;9.2;5.8
45112;PMS5003;30873;53.908;27.576;2023-02-01T01:56:53;11.9;10.5;6.2
45112;PMS5003;30873;53.908;27.576;2023-02-01T02:01:19;13.6;11.3;7.3
45112;PMS5003;30873;53.908;27.576;2023-02-01T02:06:45;14.8;11.7;7.5
45112;PMS5003;30873;53.908;27.576;2023-02-01T02:11:05;14.2;11.6;7
45112;PMS5003;30873;53.908;27.576;2023-02-01T02:16:58;13.3;11.2;7.1
45112;PMS5003;30873;53.908;27.576;2023-02-01T02:21:44;13.2;11.8;7.4
45112;PMS5003;30873;53.908;27.576;2023-02-01T02:27:02;16.3;13.8;8.8
45112;PMS5003;30873;53.908;27.576;2023-02-01T02:31:46;15.8;13.7;8.3
45112;PMS5003;30873;53.908;27.576;2023-02-01T02:36:55;14.9;13.3;8.7
45112;PMS5003;30873;53.908;27.576;2023-02-01T02:41:54;16.5;13.5;8.9
45112;PMS5003;30873;53.908;27.576;2023-02-01T02:46:44;16.6;13.9;9
45112;PMS5003;30873;53.908;27.576;2023-02-01T02:51:54;14.1;12.3;7.8
45112;PMS5003;30873;53.908;27.576;2023-02-01T02:56:20;10.2;9.4;5.9
45112;PMS5003;30873;53.908;27.576;2023-02-01T03:01:41;12.3;10.1;6.3
45112;PMS5003;30873;53.908;27.576;2023-02-01T03:06:19;12.2;10;6.3
45112;PMS5003;30873;53.908;27.576;2023-02-01T03:11:43;11.9;9.4;5.8
45112;PMS5003;30873;53.908;27.576;2023-02-01T03:16:31;12.3;10.1;6.3
45112;PMS5003;30873;53.908;27.576;2023-02-01T03:21:55;12.2;10.3;6.5
45112;PMS5003;30873;53.908;27.576;2023-02-01T03:26:19;12.6;11.5;7.5
45112;PMS5003;30873;53.908;27.576;2023-02-01T03:31:53;13.6;11.3;7.2
45112;PMS5003;30873;53.908;27.576;2023-02-01T03:36:09;11.4;10;6.6
45112;PMS5003;30873;53.908;27.576;2023-02-01T03:41:33;12;10.4;6.5
45112;PMS5003;30873;53.908;27.576;2023-02-01T03:46:30;11.3;9.7;6.5
45112;PMS5003;30873;53.908;27.576;2023-02-01T03:51:19;13.1;10.3;6.4
45112;PMS5003;30873;53.908;27.576;2023-02-01T03:56:45;11.3;9.8;6.2
45112;PMS5003;30873;53.908;27.576;2023-02-01T04:01:55;12.9;11.1;7
45112;PMS5003;30873;53.908;27.576;2023-02-01T04:06:31;11.4;9.6;6.1
45112;PMS5003;30873;53.908;27.576;2023-02-01T04:11:07;9.4;7.7;4.6
45112;PMS5003;30873;53.908;27.576;2023-02-01T04:16:53;11.4;8.9;5.3
45112;PMS5003;30873;53.908;27.576;2023-02-01T04:21:05;13;11.4;6.9
45112;PMS5003;30873;53.908;27.576;2023-02-01T04:26:05;11.7;10.6;6.6
45112;PMS5003;30873;53.908;27.576;2023-02-01T04:31:41;11.3;9.6;5.9
45112;PMS5003;30873;53.908;27.576;2023-02-01T04:36:15;12.6;9.9;5.9
45112;PMS5003;30873;53.908;27.576;2023-02-01T04:41:29;12.6;9.8;4.9
45112;PMS5003;30873;53.908;27.576;2023-02-01T04:46:15;13;10.7;6.5
45112;PMS5003;30873;53.908;27.576;2023-02-01T04:51:31;11.6;10;5.7
45112;PMS5003;30873;53.908;27.576;2023-02-01T04:56:51;15.6;12.8;6.9
45112;PMS5003;30873;53.908;27.576;2023-02-01T05:01:29;16.1;13.3;7.6
45112;PMS5003;30873;53.908;27.576;2023-02-01T05:06:55;14.1;10.8;6.5
45112;PMS5003;30873;53.908;27.576;2023-02-01T05:11:53;12.1;10.6;5.1
45112;PMS5003;30873;53.908;27.576;2023-02-01T05:16:41;13.3;10.1;5.9
45112;PMS5003;30873;53.908;27.576;2023-02-01T05:21:05;14.5;12.3;6.9
45112;PMS5003;30873;53.908;27.576;2023-02-01T05:26:57;14.4;11.7;6.5
45112;PMS5003;30873;53.908;27.576;2023-02-01T05:31:39;15.1;10.9;6.6
45112;PMS5003;30873;53.908;27.576;2023-02-01T05:36:33;13.9;11.2;6.3
45112;PMS5003;30873;53.908;27.576;2023-02-01T05:41:57;13.6;11.2;6.3
45112;PMS5003;30873;53.908;27.576;2023-02-01T05:46:15;11.7;10.6;6.6
45112;PMS5003;30873;53.908;27.576;2023-02-01T05:51:43;14.3;12.5;6.6
45112;PMS5003;30873;53.908;27.576;2023-02-01T05:56:31;17.3;13.1;6.6
45112;PMS5003;30873;53.908;27.576;2023-02-01T06:01:51;16.6;12.5;7.2
45112;PMS5003;30873;53.908;27.576;2023-02-01T06:06:27;16.9;12.9;7.5
45112;PMS5003;30873;53.908;27.576;2023-02-01T06:11:41;14.4;12.8;7.9
45112;PMS5003;30873;53.908;27.576;2023-02-01T06:16:17;16.4;14.7;7.5
45112;PMS5003;30873;53.908;27.576;2023-02-01T06:21:53;17.8;14.9;8.9
45112;PMS5003;30873;53.908;27.576;2023-02-01T06:26:17;18;15;9.1
45112;PMS5003;30873;53.908;27.576;2023-02-01T06:31:39;18.4;14.7;8.8
45112;PMS5003;30873;53.908;27.576;2023-02-01T06:36:55;18.8;14.4;8.6
45112;PMS5003;30873;53.908;27.576;2023-02-01T06:41:39;19.8;15.5;9.5
45112;PMS5003;30873;53.908;27.576;2023-02-01T06:46:41;17.5;14.4;8.8
45112;PMS5003;30873;53.908;27.576;2023-02-01T06:51:29;17.1;14.1;8.2
45112;PMS5003;30873;53.908;27.576;2023-02-01T06:56:55;15.7;13.1;7.5
45112;PMS5003;30873;53.908;27.576;2023-02-01T07:01:15;19.3;14.7;8.6
45112;PMS5003;30873;53.908;27.576;2023-02-01T07:06:43;19.3;15.3;8.4
45112;PMS5003;30873;53.908;27.576;2023-02-01T07:11:06;21.8;17.4;10.7
45112;PMS5003;30873;53.908;27.576;2023-02-01T07:16:55;20;16;9
45112;PMS5003;30873;53.908;27.576;2023-02-01T07:21:41;19.5;15.1;9.2
45112;PMS5003;30873;53.908;27.576;2023-02-01T07:26:53;20;17.3;10.3
45112;PMS5003;30873;53.908;27.576;2023-02-01T07:31:43;22.1;17.7;10
45112;PMS5003;30873;53.908;27.576;2023-02-01T07:36:43;22.9;20;11.4
45112;PMS5003;30873;53.908;27.576;2023-02-01T07:41:57;25.4;20.4;11.9
45112;PMS5003;30873;53.908;27.576;2023-02-01T07:46:05;23;19.1;11.4
45112;PMS5003;30873;53.908;27.576;2023-02-01T07:51:43;24.3;21.8;12.5
45112;PMS5003;30873;53.908;27.576;2023-02-01T07:56:09;25.2;21.5;12.5
45112;PMS5003;30873;53.908;27.576;2023-02-01T08:01:31;27.8;22.3;12.7
45112;PMS5003;30873;53.908;27.576;2023-02-01T08:06:05;26.9;23.3;13.9
45112;PMS5003;30873;53.908;27.576;2023-02-01T08:11:39;27.4;22.6;14.7
45112;PMS5003;30873;53.908;27.576;2023-02-01T08:16:31;27.7;24;13.5
45112;PMS5003;30873;53.908;27.576;2023-02-01T08:21:45;29.2;24;14
45112;PMS5003;30873;53.908;27.576;2023-02-01T08:26:41;26;22.5;14.1
45112;PMS5003;30873;53.908;27.576;2023-02-01T08:31:57;28.5;24.2;14
45112;PMS5003;30873;53.908;27.576;2023-02-01T08:36:55;26.8;21;12.4
45112;PMS5003;30873;53.908;27.576;2023-02-01T08:41:18;24.2;20;11.2
45112;PMS5003;30873;53.908;27.576;2023-02-01T08:46:57;23.7;20.9;12.4
45112;PMS5003;30873;53.908;27.576;2023-02-01T08:51:06;24;20.5;12.9
45112;PMS5003;30873;53.908;27.576;2023-02-01T08:56:43;24;21;12.9
45112;PMS5003;30873;53.908;27.576;2023-02-01T09:01:31;23.4;20.2;12
45112;PMS5003;30873;53.908;27.576;2023-02-01T09:06:57;22.5;18.8;11.5
45112;PMS5003;30873;53.908;27.576;2023-02-01T09:11:29;23;19;11.3
45112;PMS5003;30873;53.908;27.576;2023-02-01T09:16:53;22.3;18.9;11.5
45112;PMS5003;30873;53.908;27.576;2023-02-01T09:21:29;23.1;19.7;12.5
45112;PMS5003;30873;53.908;27.576;2023-02-01T09:26:43;25.2;20.3;11.4
45112;PMS5003;30873;53.908;27.576;2023-02-01T09:31:31;22.5;18.8;11.2
45112;PMS5003;30873;53.908;27.576;2023-02-01T09:36:17;24;20.3;11.7
45112;PMS5003;30873;53.908;27.576;2023-02-01T09:41:07;25.9;21;12.8
45112;PMS5003;30873;53.908;27.576;2023-02-01T09:46:10;25.5;21.1;12.5
45112;PMS5003;30873;53.908;27.576;2023-02-01T09:51:44;27;20.8;12.5
45112;PMS5003;30873;53.908;27.576;2023-02-01T09:56:58;26.5;23.4;13.4
45112;PMS5003;30873;53.908;27.576;2023-02-01T10:01:31;26.2;21.8;12.8
45112;PMS5003;30873;53.908;27.576;2023-02-01T10:06:33;28.9;23.5;13.7
45112;PMS5003;30873;53.908;27.576;2023-02-01T10:12:02;26.8;23;13.7
45112;PMS5003;30873;53.908;27.576;2023-02-01T10:16:09;30.8;24.9;15.1
45112;PMS5003;30873;53.908;27.576;2023-02-01T10:21:57;29.5;24.9;14.8
45112;PMS5003;30873;53.908;27.576;2023-02-01T10:26:44;27.5;23.5;13.8
45112;PMS5003;30873;53.908;27.576;2023-02-01T10:31:31;27.9;24.3;14.9
45112;PMS5003;30873;53.908;27.576;2023-02-01T10:36:08;28.1;24.8;15.3
45112;PMS5003;30873;53.908;27.576;2023-02-01T10:41:29;30;24.8;15.4
45112;PMS5003;30873;53.908;27.576;2023-02-01T10:46:29;26.7;21.8;13.6
45112;PMS5003;30873;53.908;27.576;2023-02-01T10:51:46;22.8;20;12.3
45112;PMS5003;30873;53.908;27.576;2023-02-01T10:56:05;26;22.1;13.1
45112;PMS5003;30873;53.908;27.576;2023-02-01T11:01:43;24.1;20.1;11.9
45112;PMS5003;30873;53.908;27.576;2023-02-01T11:06:47;24.9;20.2;13.5
45112;PMS5003;30873;53.908;27.576;2023-02-01T11:11:32;26;22.1;12.8
45112;PMS5003;30873;53.908;27.576;2023-02-01T11:16:05;27;22.5;13.4
45112;PMS5003;30873;53.908;27.576;2023-02-01T11:21:33;23.7;20.6;13
45112;PMS5003;30873;53.908;27.576;2023-02-01T11:26:20;28.9;24.1;15
45112;PMS5003;30873;53.908;27.576;2023-02-01T11:31:19;26;22;13.2
45112;PMS5003;30873;53.908;27.576;2023-02-01T11:36:06;23.9;19.6;12.9
45112;PMS5003;30873;53.908;27.576;2023-02-01T11:41:31;24.7;20.4;13.2
45112;PMS5003;30873;53.908;27.576;2023-02-01T11:47:12;23.8;19.7;11.9
45112;PMS5003;30873;53.908;27.576;2023-02-01T11:51:37;22.2;19.5;12.3
45112;PMS5003;30873;53.908;27.576;2023-02-01T11:57:01;26.2;21.3;13.3
45112;PMS5003;30873;53.908;27.576;2023-02-01T12:02:01;25.8;21.9;12.9
45112;PMS5003;30873;53.908;27.576;2023-02-01T12:06:06;24.7;19.8;12.7
45112;PMS5003;30873;53.908;27.576;2023-02-01T12:11:48;22.7;18.7;11.4
45112;PMS5003;30873;53.908;27.576;2023-02-01T12:17:03;23.3;18.9;11.3
45112;PMS5003;30873;53.908;27.576;2023-02-01T12:21:06;22.1;18.7;12.2
45112;PMS5003;30873;53.908;27.576;2023-02-01T12:26:22;20.4;16.8;10.8
45112;PMS5003;30873;53.908;27.576;2023-02-01T12:32:02;19.5;17.3;11
45112;PMS5003;30873;53.908;27.576;2023-02-01T12:36:45;17.5;16;9.6
45112;PMS5003;30873;53.908;27.576;2023-02-01T12:41:31;18.8;16.9;10.9
45112;PMS5003;30873;53.908;27.576;2023-02-01T12:46:06;15.3;14.2;9.5
45112;PMS5003;30873;53.908;27.576;2023-02-01T12:52:00;16.5;14;8.4
45112;PMS5003;30873;53.908;27.576;2023-02-01T12:56:19;16.3;14.5;9.8
45112;PMS5003;30873;53.908;27.576;2023-02-01T13:01:44;16.6;14.7;9.7
45112;PMS5003;30873;53.908;27.576;2023-02-01T13:06:32;17.3;14.7;9
45112;PMS5003;30873;53.908;27.576;2023-02-01T13:11:44;15.2;12.4;8
45112;PMS5003;30873;53.908;27.576;2023-02-01T13:16:18;14.7;12.9;7.8
45112;PMS5003;30873;53.908;27.576;2023-02-01T13:21:58;13.5;11.7;7.3
45112;PMS5003;30873;53.908;27.576;2023-02-01T13:26:41;11.3;9.7;5.7
45112;PMS5003;30873;53.908;27.576;2023-02-01T13:31:49;15.4;14.1;8.2
45112;PMS5003;30873;53.908;27.576;2023-02-01T13:37:01;12.6;10.8;7
45112;PMS5003;30873;53.908;27.576;2023-02-01T13:41:31;11.3;10.1;6.6
45112;PMS5003;30873;53.908;27.576;2023-02-01T13:46:46;10.5;9.4;5.9
45112;PMS5003;30873;53.908;27.576;2023-02-01T13:51:05;13.1;10.7;7.3
45112;PMS5003;30873;53.908;27.576;2023-02-01T13:56:45;11.3;9.5;6.2
45112;PMS5003;30873;53.908;27.576;2023-02-01T14:01:48;9;8.3;5.6
45112;PMS5003;30873;53.908;27.576;2023-02-01T14:06:38;7.3;6.5;4.4
45112;PMS5003;30873;53.908;27.576;2023-02-01T14:11:32;9.2;7.6;5
45112;PMS5003;30873;53.908;27.576;2023-02-01T14:16:43;10;8.3;4.9
45112;PMS5003;30873;53.908;27.576;2023-02-01T14:21:46;9.7;7.9;4.2
45112;PMS5003;30873;53.908;27.576;2023-02-01T14:26:55;11.1;9.4;6
45112;PMS5003;30873;53.908;27.576;2023-02-01T14:31:59;12.5;10.6;6.4
45112;PMS5003;30873;53.908;27.576;2023-02-01T14:36:39;12.5;10.6;6.1
45112;PMS5003;30873;53.908;27.576;2023-02-01T14:41:56;13;10.8;6.5
45112;PMS5003;30873;53.908;27.576;2023-02-01T14:46:28;12.7;10.8;7.1
45112;PMS5003;30873;53.908;27.576;2023-02-01T14:51:43;13.2;10.5;6.1
45112;PMS5003;30873;53.908;27.576;2023-02-01T14:56:06;12.5;10.5;6.4
45112;PMS5003;30873;53.908;27.576;2023-02-01T15:01:46;12.1;9.3;5.7
45112;PMS5003;30873;53.908;27.576;2023-02-01T15:06:32;10.7;10.1;5.5
45112;PMS5003;30873;53.908;27.576;2023-02-01T15:12:00;10.8;9.3;5.4
45112;PMS5003;30873;53.908;27.576;2023-02-01T15:16:41;9.3;8.2;5.4
45112;PMS5003;30873;53.908;27.576;2023-02-01T15:21:56;10.5;8.9;5.8
45112;PMS5003;30873;53.908;27.576;2023-02-01T15:26:55;8.8;7.3;4.7
45112;PMS5003;30873;53.908;27.576;2023-02-01T15:31:05;11.6;8.5;5.2
45112;PMS5003;30873;53.908;27.576;2023-02-01T15:36:55;10.1;8.3;5.1
45112;PMS5003;30873;53.908;27.576;2023-02-01T15:41:16;11;10.1;5.5
45112;PMS5003;30873;53.908;27.576;2023-02-01T15:46:46;12.3;10.3;6.5
45112;PMS5003;30873;53.908;27.576;2023-02-01T15:51:44;11.3;8.8;5.2
45112;PMS5003;30873;53.908;27.576;2023-02-01T15:56:55;10.9;8.8;5.2
45112;PMS5003;30873;53.908;27.576;2023-02-01T16:01:35;11.5;10;5.5
45112;PMS5003;30873;53.908;27.576;2023-02-01T16:06:58;10.6;9.5;5.2
45112;PMS5003;30873;53.908;27.576;2023-02-01T16:11:22;12.3;9.5;5.4
45112;PMS5003;30873;53.908;27.576;2023-02-01T16:16:58;11.4;10.5;5.9
45112;PMS5003;30873;53.908;27.576;2023-02-01T16:21:05;12.9;10.1;5.4
45112;PMS5003;30873;53.908;27.576;2023-02-01T16:26:05;11.4;9.7;5.6
45112;PMS5003;30873;53.908;27.576;2023-02-01T16:31:34;11.5;9.1;5.3
45112;PMS5003;30873;53.908;27.576;2023-02-01T16:36:05;10;8.4;5
45112;PMS5003;30873;53.908;27.576;2023-02-01T16:41:41;8.7;7.4;4.4
45112;PMS5003;30873;53.908;27.576;2023-02-01T16:46:57;10.8;8.6;4.9
45112;PMS5003;30873;53.908;27.576;2023-02-01T16:51:41;9.2;8.3;4.6
45112;PMS5003;30873;53.908;27.576;2023-02-01T16:56:32;10.1;8.1;4.7
45112;PMS5003;30873;53.908;27.576;2023-02-01T17:01:55;9.3;6.8;3.8
45112;PMS5003;30873;53.908;27.576;2023-02-01T17:06:31;9.5;8.4;5.1
45112;PMS5003;30873;53.908;27.576;2023-02-01T17:11:19;10;8.4;4.8
45112;PMS5003;30873;53.908;27.576;2023-02-01T17:16:33;12.9;10.7;5.8
45112;PMS5003;30873;53.908;27.576;2023-02-01T17:21:19;10.3;8.3;4.9
45112;PMS5003;30873;53.908;27.576;2023-02-01T17:26:43;9.6;7.8;4.7
45112;PMS5003;30873;53.908;27.576;2023-02-01T17:31:19;10.6;8.2;4.7
45112;PMS5003;30873;53.908;27.576;2023-02-01T17:36:31;9.9;8.3;4.6
45112;PMS5003;30873;53.908;27.576;2023-02-01T17:41:57;10.3;8.8;5.2
45112;PMS5003;30873;53.908;27.576;2023-02-01T17:46:31;8.4;6.6;3.6
45112;PMS5003;30873;53.908;27.576;2023-02-01T17:51:57;8.4;6.7;3.8
45112;PMS5003;30873;53.908;27.576;2023-02-01T17:56:55;8.5;7.1;4.1
45112;PMS5003;30873;53.908;27.576;2023-02-01T18:01:43;8.2;6.3;3.8
45112;PMS5003;30873;53.908;27.576;2023-02-01T18:06:33;7.4;6.6;3.3
45112;PMS5003;30873;53.908;27.576;2023-02-01T18:11:55;6.7;5.7;3.4
45112;PMS5003;30873;53.908;27.576;2023-02-01T18:16:18;7.9;6.7;4.3
45112;PMS5003;30873;53.908;27.576;2023-02-01T18:21:32;8.4;6.7;4.3
45112;PMS5003;30873;53.908;27.576;2023-02-01T18:26:55;6.5;4.8;2.9
45112;PMS5003;30873;53.908;27.576;2023-02-01T18:31:39;6.5;5.8;3.8
45112;PMS5003;30873;53.908;27.576;2023-02-01T18:36:41;7.2;6;3.4
45112;PMS5003;30873;53.908;27.576;2023-02-01T18:41:29;6.7;5.3;3.5
45112;PMS5003;30873;53.908;27.576;2023-02-01T18:46:17;6;5;3.1
45112;PMS5003;30873;53.908;27.576;2023-02-01T18:51:05;5.8;4.9;2.8
45112;PMS5003;30873;53.908;27.576;2023-02-01T18:56:41;6;5.2;2.6
45112;PMS5003;30873;53.908;27.576;2023-02-01T19:01:06;7.2;5.4;3.4
45112;PMS5003;30873;53.908;27.576;2023-02-01T19:06:29;5.4;4.3;1.8
45112;PMS5003;30873;53.908;27.576;2023-02-01T19:11:05;4.8;3.9;2.1
45112;PMS5003;30873;53.908;27.576;2023-02-01T19:16:53;3.1;2.7;1
45112;PMS5003;30873;53.908;27.576;2023-02-01T19:21:41;3.9;3.5;1.3
45112;PMS5003;30873;53.908;27.576;2023-02-01T19:26:39;3.4;2.6;1.2
45112;PMS5003;30873;53.908;27.576;2023-02-01T19:31:55;4;3.3;1.7
45112;PMS5003;30873;53.908;27.576;2023-02-01T19:36:33;3.6;3;1.1
45112;PMS5003;30873;53.908;27.576;2023-02-01T19:41:45;3.1;2.8;1.7
45112;PMS5003;30873;53.908;27.576;2023-02-01T19:46:41;4.8;3.5;1.8
45112;PMS5003;30873;53.908;27.576;2023-02-01T19:51:58;3.4;3.3;1.4
45112;PMS5003;30873;53.908;27.576;2023-02-01T19:56:31;4.5;3.7;1.7
45112;PMS5003;30873;53.908;27.576;2023-02-01T20:01:43;4.7;3.9;1.7
45112;PMS5003;30873;53.908;27.576;2023-02-01T20:06:05;5.5;4.4;2.3
45112;PMS5003;30873;53.908;27.576;2023-02-01T20:11:29;4.2;3.7;1.8
45112;PMS5003;30873;53.908;27.576;2023-02-01T20:16:39;6.3;5.2;2.6
45112;PMS5003;30873;53.908;27.576;2023-02-01T20:21:55;5.1;4.3;2.2
45112;PMS5003;30873;53.908;27.576;2023-02-01T20:26:55;4.7;3.7;1.4
45112;PMS5003;30873;53.908;27.576;2023-02-01T20:31:05;7.1;4.8;2.3
45112;PMS5003;30873;53.908;27.576;2023-02-01T20:36:53;5.9;4.5;1.8
45112;PMS5003;30873;53.908;27.576;2023-02-01T20:41:19;4.5;3.9;1.9
45112;PMS5003;30873;53.908;27.576;2023-02-01T20:46:45;4.1;3.3;1.5
45112;PMS5003;30873;53.908;27.576;2023-02-01T20:51:29;5.3;3.8;1.4
45112;PMS5003;30873;53.908;27.576;2023-02-01T20:56:29;3.5;3.3;1.3
45112;PMS5003;30873;53.908;27.576;2023-02-01T21:01:31;4.9;3.9;1.4
45112;PMS5003;30873;53.908;27.576;2023-02-01T21:06:56;3.9;3.5;1.3
45112;PMS5003;30873;53.908;27.576;2023-02-01T21:11:19;5.6;4.2;1.8
45112;PMS5003;30873;53.908;27.576;2023-02-01T21:16:55;5.2;4.2;1.5
45112;PMS5003;30873;53.908;27.576;2023-02-01T21:21:31;6.2;4.8;1.9
45112;PMS5003;30873;53.908;27.576;2023-02-01T21:26:18;6;5;2.8
45112;PMS5003;30873;53.908;27.576;2023-02-01T21:31:55;6.2;4.9;2.2
45112;PMS5003;30873;53.908;27.576;2023-02-01T21:36:05;6.2;5;2.4
45112;PMS5003;30873;53.908;27.576;2023-02-01T21:41:45;5.7;5;2.2
45112;PMS5003;30873;53.908;27.576;2023-02-01T21:46:57;5.2;4.3;1.9
45112;PMS5003;30873;53.908;27.576;2023-02-01T21:51:31;6.4;5.2;1.7
45112;PMS5003;30873;53.908;27.576;2023-02-01T21:56:29;6.5;4.9;2.8
45112;PMS5003;30873;53.908;27.576;2023-02-01T22:01:55;6;4.1;1.7
45112;PMS5003;30873;53.908;27.576;2023-02-01T22:06:05;6.7;5.1;2.6
45112;PMS5003;30873;53.908;27.576;2023-02-01T22:11:31;5;4.2;2
45112;PMS5003;30873;53.908;27.576;2023-02-01T22:16:31;6.5;5.3;2.7
45112;PMS5003;30873;53.908;27.576;2023-02-01T22:21:05;5.8;4.5;2.1
45112;PMS5003;30873;53.908;27.576;2023-02-01T22:26:33;6;4.8;2.1
45112;PMS5003;30873;53.908;27.576;2023-02-01T22:31:19;6.3;5;2.6
45112;PMS5003;30873;53.908;27.576;2023-02-01T22:36:31;6.3;4.9;2.5
45112;PMS5003;30873;53.908;27.576;2023-02-01T22:41:55;7.3;5.8;2.5
45112;PMS5003;30873;53.908;27.576;2023-02-01T22:46:29;6.8;5.9;2.6
45112;PMS5003;30873;53.908;27.576;2023-02-01T22:51:27;6.4;5.8;2.5
45112;PMS5003;30873;53.908;27.576;2023-02-01T22:56:55;6.8;5.2;2.5
45112;PMS5003;30873;53.908;27.576;2023-02-01T23:01:27;7;5;2
45112;PMS5003;30873;53.908;27.576;2023-02-01T23:06:17;5.1;4.7;1.8
45112;PMS5003;30873;53.908;27.576;2023-02-01T23:11:17;7.8;5.7;1.8
45112;PMS5003;30873;53.908;27.576;2023-02-01T23:16:27;7.3;4.4;2.3
45112;PMS5003;30873;53.908;27.576;2023-02-01T23:21:29;4.7;3.7;1.2
45112;PMS5003;30873;53.908;27.576;2023-02-01T23:26:05;5.7;4.4;2.1
45112;PMS5003;30873;53.908;27.576;2023-02-01T23:31:31;5.2;4;1.6
45112;PMS5003;30873;53.908;27.576;2023-02-01T23:36:55;5.8;4.6;2
45112;PMS5003;30873;53.908;27.576;2023-02-01T23:41:29;6.1;4.4;1.8
45112;PMS5003;30873;53.908;27.576;2023-02-01T23:46:55;6.3;4.6;1.7
45112;PMS5003;30873;53.908;27.576;2023-02-01T23:51:41;5;4.4;1.4
45112;PMS5003;30873;53.908;27.576;2023-02-01T23:56:53;5.6;4;1.9
